LDDU/DBV METAR and TAF weather

Enter ICAO airport designator
Station Type Date Time Source
LDDU METAR 2020/11/27 14:00 UTC NOAA

LDDU 271400Z 29004KT 260V330 CAVOK 14/08 Q1021 NOSIG


Station Type Date Time Source
LDDU Decoded METAR 2020/11/27 14:00 UTC NOAA

Dubrovnik / Cilipi, Croatia (LDDU) 42-34N 018-16E 165M
Nov 27, 2020 - 09:00 AM EST / 2020.11.27 1400 UTC
Wind: from the WNW (290 degrees) at 5 MPH (4 KT) (direction variable):0
Visibility: greater than 7 mile(s):0
Temperature: 57 F (14 C)
Dew Point: 46 F (8 C)
Relative Humidity: 67%
Pressure (altimeter): 30.15 in. Hg (1021 hPa)
ob: LDDU 271400Z 29004KT 260V330 CAVOK 14/08 Q1021 NOSIG
cycle: 14

Station Type Date Time Source
LDDU TAF 2020/11/27 12:27 UTC NOAA

TAF TAF LDDU 271125Z 2712/2812 26006KT CAVOK TX15/2712Z TN08/2805Z PROB30
TEMPO 2712/2715 29007KT
BECMG 2719/2721 07008KT

Example: see airport list